In Rescue
 
Open Full Screen Window  High Contrast Mode
April 20, 2024 5:25 AM PDT
Weather Information
Wind Direction
  ---
Wind Speed
  00 kt (0 mph)
Wind Gust
  00 kt (0 mph)
Altimeter
30.03 in
Visibility
9 SM
Temperature
12° C
54° F
Dewpoint
10° C
50° F
Humidity
88%
Sky Condition
Overcast @ 1,200 ft
MVFR

METAR KSQL 201225Z AUTO 00000KT 9SM OVC012 12/10 A3003 RMK AO2

FAA Disclaimer: The data displayed is for advisory purposes only and is not to be used for flight planning or operations.